sensor_id;sensor_type;location;lat;lon;timestamp;temperature;humidity
68842;SHT35;55849;48.482;2.332;2024-02-28T05:56:27;5.38;77.65
68842;SHT35;55849;48.482;2.332;2024-02-28T05:59:30;5.45;76.70
68842;SHT35;55849;48.482;2.332;2024-02-28T06:02:32;5.43;75.93
68842;SHT35;55849;48.482;2.332;2024-02-28T06:05:34;5.42;75.39
68842;SHT35;55849;48.482;2.332;2024-02-28T06:08:38;5.39;75.84
68842;SHT35;55849;48.482;2.332;2024-02-28T06:11:41;5.36;75.62
68842;SHT35;55849;48.482;2.332;2024-02-28T06:14:43;5.35;75.78
68842;SHT35;55849;48.482;2.332;2024-02-28T06:17:44;5.32;75.33
68842;SHT35;55849;48.482;2.332;2024-02-28T06:20:46;5.31;75.14
68842;SHT35;55849;48.482;2.332;2024-02-28T06:23:47;5.29;75.15
68842;SHT35;55849;48.482;2.332;2024-02-28T06:26:50;5.29;75.56
68842;SHT35;55849;48.482;2.332;2024-02-28T06:29:52;5.29;75.84
68842;SHT35;55849;48.482;2.332;2024-02-28T06:32:54;5.28;75.05
68842;SHT35;55849;48.482;2.332;2024-02-28T06:35:55;5.27;75.96
68842;SHT35;55849;48.482;2.332;2024-02-28T06:38:58;5.24;76.12
68842;SHT35;55849;48.482;2.332;2024-02-28T06:42:01;5.27;75.43
68842;SHT35;55849;48.482;2.332;2024-02-28T06:45:03;5.24;75.53
68842;SHT35;55849;48.482;2.332;2024-02-28T06:48:06;5.22;75.41
68842;SHT35;55849;48.482;2.332;2024-02-28T06:51:08;5.15;75.10
68842;SHT35;55849;48.482;2.332;2024-02-28T06:54:09;5.15;75.08
68842;SHT35;55849;48.482;2.332;2024-02-28T06:57:13;5.15;75.84
68842;SHT35;55849;48.482;2.332;2024-02-28T07:00:15;5.18;76.54
68842;SHT35;55849;48.482;2.332;2024-02-28T07:03:18;5.19;76.88
68842;SHT35;55849;48.482;2.332;2024-02-28T07:06:20;5.24;76.95
68842;SHT35;55849;48.482;2.332;2024-02-28T07:09:22;5.22;76.75
68842;SHT35;55849;48.482;2.332;2024-02-28T07:12:27;5.25;76.86
68842;SHT35;55849;48.482;2.332;2024-02-28T07:15:29;5.25;76.20
68842;SHT35;55849;48.482;2.332;2024-02-28T07:18:30;5.27;75.77
68842;SHT35;55849;48.482;2.332;2024-02-28T07:21:32;5.27;75.61
68842;SHT35;55849;48.482;2.332;2024-02-28T07:24:33;5.24;76.05
68842;SHT35;55849;48.482;2.332;2024-02-28T07:27:36;5.22;75.53
68842;SHT35;55849;48.482;2.332;2024-02-28T07:30:38;5.25;75.62
68842;SHT35;55849;48.482;2.332;2024-02-28T07:33:41;5.25;76.46
68842;SHT35;55849;48.482;2.332;2024-02-28T07:36:43;5.25;76.85
68842;SHT35;55849;48.482;2.332;2024-02-28T07:39:45;5.28;76.14
68842;SHT35;55849;48.482;2.332;2024-02-28T07:42:49;5.29;75.93
68842;SHT35;55849;48.482;2.332;2024-02-28T07:45:50;5.27;75.97
68842;SHT35;55849;48.482;2.332;2024-02-28T07:48:52;5.32;77.70
68842;SHT35;55849;48.482;2.332;2024-02-28T07:51:53;5.35;79.63
68842;SHT35;55849;48.482;2.332;2024-02-28T07:54:55;5.39;78.37
68842;SHT35;55849;48.482;2.332;2024-02-28T07:57:58;5.46;79.09
68842;SHT35;55849;48.482;2.332;2024-02-28T08:00:59;5.52;79.35
68842;SHT35;55849;48.482;2.332;2024-02-28T08:04:01;5.57;78.97
68842;SHT35;55849;48.482;2.332;2024-02-28T08:07:03;5.63;80.18
68842;SHT35;55849;48.482;2.332;2024-02-28T08:10:05;5.66;80.30
68842;SHT35;55849;48.482;2.332;2024-02-28T08:13:08;5.74;79.12
68842;SHT35;55849;48.482;2.332;2024-02-28T08:16:10;5.78;78.81
68842;SHT35;55849;48.482;2.332;2024-02-28T08:19:12;5.83;77.95
68842;SHT35;55849;48.482;2.332;2024-02-28T08:22:13;5.81;77.38
68842;SHT35;55849;48.482;2.332;2024-02-28T08:25:15;5.84;77.43
68842;SHT35;55849;48.482;2.332;2024-02-28T08:28:18;5.87;78.29
68842;SHT35;55849;48.482;2.332;2024-02-28T08:31:19;5.86;79.30
68842;SHT35;55849;48.482;2.332;2024-02-28T08:34:21;5.87;79.51
68842;SHT35;55849;48.482;2.332;2024-02-28T08:37:23;5.90;79.66
68842;SHT35;55849;48.482;2.332;2024-02-28T08:40:25;5.93;79.21
68842;SHT35;55849;48.482;2.332;2024-02-28T08:43:28;5.93;79.62
68842;SHT35;55849;48.482;2.332;2024-02-28T08:46:29;5.98;79.15
68842;SHT35;55849;48.482;2.332;2024-02-28T08:49:31;5.97;79.29
68842;SHT35;55849;48.482;2.332;2024-02-28T08:52:32;6.01;79.69
68842;SHT35;55849;48.482;2.332;2024-02-28T08:55:34;6.02;79.91
68842;SHT35;55849;48.482;2.332;2024-02-28T08:58:37;6.08;80.39
68842;SHT35;55849;48.482;2.332;2024-02-28T09:01:38;6.06;80.04
68842;SHT35;55849;48.482;2.332;2024-02-28T09:04:41;6.12;80.95
68842;SHT35;55849;48.482;2.332;2024-02-28T09:07:43;6.13;80.67
68842;SHT35;55849;48.482;2.332;2024-02-28T09:10:45;6.18;80.66
68842;SHT35;55849;48.482;2.332;2024-02-28T09:13:49;6.21;81.05
68842;SHT35;55849;48.482;2.332;2024-02-28T09:16:50;6.23;80.90
68842;SHT35;55849;48.482;2.332;2024-02-28T09:19:52;6.26;81.04
68842;SHT35;55849;48.482;2.332;2024-02-28T09:22:54;6.30;80.96
68842;SHT35;55849;48.482;2.332;2024-02-28T09:25:55;6.34;81.12
68842;SHT35;55849;48.482;2.332;2024-02-28T09:28:59;6.41;80.98
68842;SHT35;55849;48.482;2.332;2024-02-28T09:32:01;6.43;81.31
68842;SHT35;55849;48.482;2.332;2024-02-28T09:35:02;6.49;81.35
68842;SHT35;55849;48.482;2.332;2024-02-28T09:38:04;6.54;81.52
68842;SHT35;55849;48.482;2.332;2024-02-28T09:41:06;6.61;81.37
68842;SHT35;55849;48.482;2.332;2024-02-28T09:44:10;6.67;81.44
68842;SHT35;55849;48.482;2.332;2024-02-28T09:47:13;6.70;81.34
68842;SHT35;55849;48.482;2.332;2024-02-28T09:50:15;6.73;81.38
68842;SHT35;55849;48.482;2.332;2024-02-28T09:53:19;6.80;81.32
68842;SHT35;55849;48.482;2.332;2024-02-28T09:56:22;6.85;81.64
68842;SHT35;55849;48.482;2.332;2024-02-28T09:59:26;6.89;81.99
68842;SHT35;55849;48.482;2.332;2024-02-28T10:02:28;6.95;82.07
68842;SHT35;55849;48.482;2.332;2024-02-28T10:05:32;7.02;82.31
68842;SHT35;55849;48.482;2.332;2024-02-28T10:08:34;7.09;82.40
68842;SHT35;55849;48.482;2.332;2024-02-28T10:11:37;7.17;82.42
68842;SHT35;55849;48.482;2.332;2024-02-28T10:14:42;7.22;82.70
68842;SHT35;55849;48.482;2.332;2024-02-28T10:17:43;7.31;82.88
68842;SHT35;55849;48.482;2.332;2024-02-28T10:20:45;7.43;83.00
68842;SHT35;55849;48.482;2.332;2024-02-28T10:23:49;7.52;83.25
68842;SHT35;55849;48.482;2.332;2024-02-28T10:26:51;7.67;83.38
68842;SHT35;55849;48.482;2.332;2024-02-28T10:29:57;7.77;83.79
68842;SHT35;55849;48.482;2.332;2024-02-28T10:32:59;7.90;83.70
68842;SHT35;55849;48.482;2.332;2024-02-28T10:36:02;8.00;83.81
68842;SHT35;55849;48.482;2.332;2024-02-28T10:39:04;8.16;83.98
68842;SHT35;55849;48.482;2.332;2024-02-28T10:42:09;8.27;83.92
68842;SHT35;55849;48.482;2.332;2024-02-28T10:45:17;8.41;84.03
68842;SHT35;55849;48.482;2.332;2024-02-28T10:48:19;8.55;83.66
68842;SHT35;55849;48.482;2.332;2024-02-28T10:51:23;8.71;84.23
68842;SHT35;55849;48.482;2.332;2024-02-28T10:54:29;8.83;83.93
68842;SHT35;55849;48.482;2.332;2024-02-28T10:57:33;8.97;84.00
68842;SHT35;55849;48.482;2.332;2024-02-28T11:00:36;9.08;83.60
68842;SHT35;55849;48.482;2.332;2024-02-28T11:03:39;9.21;83.61
68842;SHT35;55849;48.482;2.332;2024-02-28T11:07:00;9.31;82.34
68842;SHT35;55849;48.482;2.332;2024-02-28T11:10:05;9.39;82.39
68842;SHT35;55849;48.482;2.332;2024-02-28T11:13:07;9.45;82.15
68842;SHT35;55849;48.482;2.332;2024-02-28T11:16:10;9.49;81.52
68842;SHT35;55849;48.482;2.332;2024-02-28T11:19:19;9.53;82.05
68842;SHT35;55849;48.482;2.332;2024-02-28T11:22:21;9.59;81.20
68842;SHT35;55849;48.482;2.332;2024-02-28T11:25:23;9.66;81.88
68842;SHT35;55849;48.482;2.332;2024-02-28T11:28:25;9.76;81.70
68842;SHT35;55849;48.482;2.332;2024-02-28T11:31:28;9.83;81.14
68842;SHT35;55849;48.482;2.332;2024-02-28T11:34:29;9.90;81.19
68842;SHT35;55849;48.482;2.332;2024-02-28T11:37:31;9.95;81.12
68842;SHT35;55849;48.482;2.332;2024-02-28T11:40:33;10.03;80.43
68842;SHT35;55849;48.482;2.332;2024-02-28T11:43:35;10.07;80.06
68842;SHT35;55849;48.482;2.332;2024-02-28T11:46:38;10.12;80.31
68842;SHT35;55849;48.482;2.332;2024-02-28T11:49:39;10.18;79.79
68842;SHT35;55849;48.482;2.332;2024-02-28T11:52:42;10.22;80.67
68842;SHT35;55849;48.482;2.332;2024-02-28T11:55:45;10.25;80.02
68842;SHT35;55849;48.482;2.332;2024-02-28T11:58:51;10.31;79.88
68842;SHT35;55849;48.482;2.332;2024-02-28T12:01:54;10.36;80.01
68842;SHT35;55849;48.482;2.332;2024-02-28T12:05:00;10.42;79.84
68842;SHT35;55849;48.482;2.332;2024-02-28T12:08:02;10.44;79.91
68842;SHT35;55849;48.482;2.332;2024-02-28T12:11:08;10.46;79.00
68842;SHT35;55849;48.482;2.332;2024-02-28T12:14:12;10.52;79.01
68842;SHT35;55849;48.482;2.332;2024-02-28T12:17:15;10.49;79.13
68842;SHT35;55849;48.482;2.332;2024-02-28T12:20:17;10.50;78.26
68842;SHT35;55849;48.482;2.332;2024-02-28T12:23:19;10.50;78.51
68842;SHT35;55849;48.482;2.332;2024-02-28T12:26:21;10.50;78.07
68842;SHT35;55849;48.482;2.332;2024-02-28T12:29:22;10.53;78.30
68842;SHT35;55849;48.482;2.332;2024-02-28T12:32:25;10.55;78.48
68842;SHT35;55849;48.482;2.332;2024-02-28T12:35:27;10.57;77.95
68842;SHT35;55849;48.482;2.332;2024-02-28T12:38:30;10.59;78.31
68842;SHT35;55849;48.482;2.332;2024-02-28T12:41:32;10.59;78.21
68842;SHT35;55849;48.482;2.332;2024-02-28T12:44:33;10.62;77.81
68842;SHT35;55849;48.482;2.332;2024-02-28T12:47:36;10.62;78.01
68842;SHT35;55849;48.482;2.332;2024-02-28T12:50:38;10.60;77.82
68842;SHT35;55849;48.482;2.332;2024-02-28T12:53:40;10.64;77.84
68842;SHT35;55849;48.482;2.332;2024-02-28T12:56:41;10.64;77.60
68842;SHT35;55849;48.482;2.332;2024-02-28T12:59:44;10.64;77.07
68842;SHT35;55849;48.482;2.332;2024-02-28T13:02:47;10.70;78.77
68842;SHT35;55849;48.482;2.332;2024-02-28T13:05:48;10.81;79.12
68842;SHT35;55849;48.482;2.332;2024-02-28T13:08:50;11.03;79.68
68842;SHT35;55849;48.482;2.332;2024-02-28T13:11:52;11.32;79.45
68842;SHT35;55849;48.482;2.332;2024-02-28T13:14:54;11.66;79.54
68842;SHT35;55849;48.482;2.332;2024-02-28T13:17:57;12.01;77.59
68842;SHT35;55849;48.482;2.332;2024-02-28T13:20:59;12.34;77.41
68842;SHT35;55849;48.482;2.332;2024-02-28T13:24:01;12.63;76.86
68842;SHT35;55849;48.482;2.332;2024-02-28T13:27:03;12.87;75.72
68842;SHT35;55849;48.482;2.332;2024-02-28T13:30:06;13.10;74.73
68842;SHT35;55849;48.482;2.332;2024-02-28T13:33:09;13.35;73.24
68842;SHT35;55849;48.482;2.332;2024-02-28T13:36:11;13.53;72.97
68842;SHT35;55849;48.482;2.332;2024-02-28T13:39:12;13.74;72.70
68842;SHT35;55849;48.482;2.332;2024-02-28T13:42:14;13.90;72.86
68842;SHT35;55849;48.482;2.332;2024-02-28T13:45:16;14.08;71.41
68842;SHT35;55849;48.482;2.332;2024-02-28T13:48:20;14.14;70.84
68842;SHT35;55849;48.482;2.332;2024-02-28T13:51:22;14.16;69.88
68842;SHT35;55849;48.482;2.332;2024-02-28T13:54:24;14.13;69.65
68842;SHT35;55849;48.482;2.332;2024-02-28T13:57:26;14.09;70.21
68842;SHT35;55849;48.482;2.332;2024-02-28T14:00:27;14.02;69.89
68842;SHT35;55849;48.482;2.332;2024-02-28T14:03:30;13.96;69.37
68842;SHT35;55849;48.482;2.332;2024-02-28T14:06:32;13.88;69.11
68842;SHT35;55849;48.482;2.332;2024-02-28T14:09:33;13.79;69.60
68842;SHT35;55849;48.482;2.332;2024-02-28T14:12:35;13.74;70.24
68842;SHT35;55849;48.482;2.332;2024-02-28T14:15:37;13.68;69.94
68842;SHT35;55849;48.482;2.332;2024-02-28T14:18:40;13.61;69.96
68842;SHT35;55849;48.482;2.332;2024-02-28T14:21:42;13.53;69.18
68842;SHT35;55849;48.482;2.332;2024-02-28T14:24:43;13.40;69.17
68842;SHT35;55849;48.482;2.332;2024-02-28T14:27:45;13.33;70.49
68842;SHT35;55849;48.482;2.332;2024-02-28T14:30:47;13.26;70.30
68842;SHT35;55849;48.482;2.332;2024-02-28T14:33:51;13.20;70.64
68842;SHT35;55849;48.482;2.332;2024-02-28T14:36:54;13.13;70.79
68842;SHT35;55849;48.482;2.332;2024-02-28T14:39:55;13.08;70.52
68842;SHT35;55849;48.482;2.332;2024-02-28T14:42:57;12.99;70.97
68842;SHT35;55849;48.482;2.332;2024-02-28T14:45:59;12.96;71.31
68842;SHT35;55849;48.482;2.332;2024-02-28T14:49:02;12.91;70.88
68842;SHT35;55849;48.482;2.332;2024-02-28T14:52:04;12.85;71.05
68842;SHT35;55849;48.482;2.332;2024-02-28T14:55:07;12.83;71.34
68842;SHT35;55849;48.482;2.332;2024-02-28T14:58:08;12.77;70.71
68842;SHT35;55849;48.482;2.332;2024-02-28T15:01:10;12.73;70.77
68842;SHT35;55849;48.482;2.332;2024-02-28T15:04:13;12.68;71.87
68842;SHT35;55849;48.482;2.332;2024-02-28T15:07:15;12.67;71.46
68842;SHT35;55849;48.482;2.332;2024-02-28T15:10:17;12.63;72.12
68842;SHT35;55849;48.482;2.332;2024-02-28T15:13:19;12.57;71.91
68842;SHT35;55849;48.482;2.332;2024-02-28T15:16:21;12.56;71.73
68842;SHT35;55849;48.482;2.332;2024-02-28T15:19:24;12.51;71.51
68842;SHT35;55849;48.482;2.332;2024-02-28T15:22:26;12.51;71.77
68842;SHT35;55849;48.482;2.332;2024-02-28T15:25:28;12.42;71.57
68842;SHT35;55849;48.482;2.332;2024-02-28T15:28:29;12.40;71.83
68842;SHT35;55849;48.482;2.332;2024-02-28T15:31:31;12.37;72.27
68842;SHT35;55849;48.482;2.332;2024-02-28T15:34:34;12.33;72.23
68842;SHT35;55849;48.482;2.332;2024-02-28T15:37:36;12.29;71.90
68842;SHT35;55849;48.482;2.332;2024-02-28T15:40:37;12.26;72.09
68842;SHT35;55849;48.482;2.332;2024-02-28T15:43:39;12.22;71.97
68842;SHT35;55849;48.482;2.332;2024-02-28T15:46:41;12.19;72.29
68842;SHT35;55849;48.482;2.332;2024-02-28T15:49:44;12.15;72.36
68842;SHT35;55849;48.482;2.332;2024-02-28T15:52:45;12.12;73.13
68842;SHT35;55849;48.482;2.332;2024-02-28T15:55:47;12.12;72.83
68842;SHT35;55849;48.482;2.332;2024-02-28T15:58:49;12.11;73.48
68842;SHT35;55849;48.482;2.332;2024-02-28T16:01:50;12.09;73.01
68842;SHT35;55849;48.482;2.332;2024-02-28T16:04:53;12.11;73.24
68842;SHT35;55849;48.482;2.332;2024-02-28T16:07:55;12.09;73.28
68842;SHT35;55849;48.482;2.332;2024-02-28T16:10:58;12.06;73.16
68842;SHT35;55849;48.482;2.332;2024-02-28T16:14:00;12.08;73.28
68842;SHT35;55849;48.482;2.332;2024-02-28T16:17:01;12.06;73.12
68842;SHT35;55849;48.482;2.332;2024-02-28T16:20:05;12.05;73.46
68842;SHT35;55849;48.482;2.332;2024-02-28T16:23:07;12.05;73.54
68842;SHT35;55849;48.482;2.332;2024-02-28T16:26:09;12.06;73.05
68842;SHT35;55849;48.482;2.332;2024-02-28T16:29:10;12.04;73.73
68842;SHT35;55849;48.482;2.332;2024-02-28T16:32:12;12.04;74.00
68842;SHT35;55849;48.482;2.332;2024-02-28T16:35:15;12.02;73.67
68842;SHT35;55849;48.482;2.332;2024-02-28T16:38:17;12.01;73.57
68842;SHT35;55849;48.482;2.332;2024-02-28T16:41:19;11.98;74.04
68842;SHT35;55849;48.482;2.332;2024-02-28T16:44:21;11.98;74.11
68842;SHT35;55849;48.482;2.332;2024-02-28T16:47:22;11.98;74.99
68842;SHT35;55849;48.482;2.332;2024-02-28T16:50:25;11.95;73.85
68842;SHT35;55849;48.482;2.332;2024-02-28T16:53:27;11.94;74.28
68842;SHT35;55849;48.482;2.332;2024-02-28T16:56:30;11.90;74.07
68842;SHT35;55849;48.482;2.332;2024-02-28T16:59:32;11.91;74.39
68842;SHT35;55849;48.482;2.332;2024-02-28T17:02:33;11.90;74.81
68842;SHT35;55849;48.482;2.332;2024-02-28T17:05:36;11.88;75.01
68842;SHT35;55849;48.482;2.332;2024-02-28T17:08:39;11.87;74.60
68842;SHT35;55849;48.482;2.332;2024-02-28T17:11:41;11.87;74.48
68842;SHT35;55849;48.482;2.332;2024-02-28T17:14:42;11.85;74.36
68842;SHT35;55849;48.482;2.332;2024-02-28T17:17:44;11.84;75.11
68842;SHT35;55849;48.482;2.332;2024-02-28T17:20:47;11.82;75.39
68842;SHT35;55849;48.482;2.332;2024-02-28T17:23:49;11.80;75.08
68842;SHT35;55849;48.482;2.332;2024-02-28T17:26:51;11.80;74.37
68842;SHT35;55849;48.482;2.332;2024-02-28T17:29:52;11.80;74.99
68842;SHT35;55849;48.482;2.332;2024-02-28T17:32:57;11.75;75.40
68842;SHT35;55849;48.482;2.332;2024-02-28T17:36:00;11.77;74.96
68842;SHT35;55849;48.482;2.332;2024-02-28T17:39:02;11.74;75.16
68842;SHT35;55849;48.482;2.332;2024-02-28T17:42:04;11.75;75.27
68842;SHT35;55849;48.482;2.332;2024-02-28T17:45:07;11.73;75.81
68842;SHT35;55849;48.482;2.332;2024-02-28T17:48:09;11.73;75.39
68842;SHT35;55849;48.482;2.332;2024-02-28T17:51:14;11.70;75.81
68842;SHT35;55849;48.482;2.332;2024-02-28T17:54:16;11.73;75.68
68842;SHT35;55849;48.482;2.332;2024-02-28T17:57:17;11.69;75.80
68842;SHT35;55849;48.482;2.332;2024-02-28T18:00:19;11.69;75.52
68842;SHT35;55849;48.482;2.332;2024-02-28T18:03:25;11.67;76.35
68842;SHT35;55849;48.482;2.332;2024-02-28T18:06:28;11.67;76.33
68842;SHT35;55849;48.482;2.332;2024-02-28T18:09:30;11.64;76.89
68842;SHT35;55849;48.482;2.332;2024-02-28T18:12:32;11.63;76.31
68842;SHT35;55849;48.482;2.332;2024-02-28T18:15:34;11.63;77.08
68842;SHT35;55849;48.482;2.332;2024-02-28T18:18:35;11.63;76.92
68842;SHT35;55849;48.482;2.332;2024-02-28T18:21:38;11.59;77.03
68842;SHT35;55849;48.482;2.332;2024-02-28T18:24:40;11.59;77.22
68842;SHT35;55849;48.482;2.332;2024-02-28T18:27:42;11.56;77.04
68842;SHT35;55849;48.482;2.332;2024-02-28T18:30:43;11.52;76.60
68842;SHT35;55849;48.482;2.332;2024-02-28T18:33:46;11.50;76.45
68842;SHT35;55849;48.482;2.332;2024-02-28T18:36:49;11.40;76.40
68842;SHT35;55849;48.482;2.332;2024-02-28T18:39:51;11.36;76.28
68842;SHT35;55849;48.482;2.332;2024-02-28T18:42:52;11.32;76.61
68842;SHT35;55849;48.482;2.332;2024-02-28T18:45:54;11.28;76.92
68842;SHT35;55849;48.482;2.332;2024-02-28T18:48:55;11.22;76.53
68842;SHT35;55849;48.482;2.332;2024-02-28T18:51:58;11.14;76.40
68842;SHT35;55849;48.482;2.332;2024-02-28T18:55:00;11.10;76.49
68842;SHT35;55849;48.482;2.332;2024-02-28T18:58:02;11.03;76.81
68842;SHT35;55849;48.482;2.332;2024-02-28T19:01:03;10.98;76.76
68842;SHT35;55849;48.482;2.332;2024-02-28T19:04:05;10.91;76.27
68842;SHT35;55849;48.482;2.332;2024-02-28T19:07:08;10.85;76.16
68842;SHT35;55849;48.482;2.332;2024-02-28T19:10:10;10.80;76.73
68842;SHT35;55849;48.482;2.332;2024-02-28T19:13:12;10.73;76.41
68842;SHT35;55849;48.482;2.332;2024-02-28T19:16:13;10.69;76.43
68842;SHT35;55849;48.482;2.332;2024-02-28T19:19:16;10.62;75.74
68842;SHT35;55849;48.482;2.332;2024-02-28T19:22:19;10.56;75.55
68842;SHT35;55849;48.482;2.332;2024-02-28T19:25:21;10.50;75.69
68842;SHT35;55849;48.482;2.332;2024-02-28T19:28:23;10.45;75.17
68842;SHT35;55849;48.482;2.332;2024-02-28T19:31:25;10.39;75.30
68842;SHT35;55849;48.482;2.332;2024-02-28T19:34:26;10.31;74.44
68842;SHT35;55849;48.482;2.332;2024-02-28T19:37:30;10.22;75.99
68842;SHT35;55849;48.482;2.332;2024-02-28T19:40:31;10.17;76.20
68842;SHT35;55849;48.482;2.332;2024-02-28T19:43:33;10.12;75.90
68842;SHT35;55849;48.482;2.332;2024-02-28T19:46:35;10.10;75.67
68842;SHT35;55849;48.482;2.332;2024-02-28T19:49:37;10.04;76.11
68842;SHT35;55849;48.482;2.332;2024-02-28T19:52:40;10.00;75.58
68842;SHT35;55849;48.482;2.332;2024-02-28T19:55:42;9.97;75.12
68842;SHT35;55849;48.482;2.332;2024-02-28T19:58:43;9.90;76.15
68842;SHT35;55849;48.482;2.332;2024-02-28T20:01:47;9.84;75.89
68842;SHT35;55849;48.482;2.332;2024-02-28T20:04:49;9.86;75.76
68842;SHT35;55849;48.482;2.332;2024-02-28T20:07:52;9.82;74.99
68842;SHT35;55849;48.482;2.332;2024-02-28T20:10:53;9.77;75.01
68842;SHT35;55849;48.482;2.332;2024-02-28T20:13:55;9.69;74.61
68842;SHT35;55849;48.482;2.332;2024-02-28T20:16:57;9.67;74.42
68842;SHT35;55849;48.482;2.332;2024-02-28T20:20:00;9.65;74.57
68842;SHT35;55849;48.482;2.332;2024-02-28T20:23:03;9.62;74.33
68842;SHT35;55849;48.482;2.332;2024-02-28T20:26:05;9.58;74.21
68842;SHT35;55849;48.482;2.332;2024-02-28T20:29:06;9.52;74.19
68842;SHT35;55849;48.482;2.332;2024-02-28T20:32:08;9.49;74.85
68842;SHT35;55849;48.482;2.332;2024-02-28T20:35:09;9.43;74.66
68842;SHT35;55849;48.482;2.332;2024-02-28T20:38:12;9.39;75.18
68842;SHT35;55849;48.482;2.332;2024-02-28T20:41:16;9.38;75.29
68842;SHT35;55849;48.482;2.332;2024-02-28T20:44:18;9.35;74.97
68842;SHT35;55849;48.482;2.332;2024-02-28T20:47:20;9.35;76.00
68842;SHT35;55849;48.482;2.332;2024-02-28T20:50:22;9.34;75.09
68842;SHT35;55849;48.482;2.332;2024-02-28T20:53:26;9.31;74.68
68842;SHT35;55849;48.482;2.332;2024-02-28T20:56:28;9.28;74.89
68842;SHT35;55849;48.482;2.332;2024-02-28T20:59:29;9.24;74.11
68842;SHT35;55849;48.482;2.332;2024-02-28T21:02:32;9.23;74.24
68842;SHT35;55849;48.482;2.332;2024-02-28T21:05:34;9.17;74.80
68842;SHT35;55849;48.482;2.332;2024-02-28T21:08:37;9.18;74.29
68842;SHT35;55849;48.482;2.332;2024-02-28T21:11:39;9.13;73.99
68842;SHT35;55849;48.482;2.332;2024-02-28T21:14:42;9.11;74.46
68842;SHT35;55849;48.482;2.332;2024-02-28T21:17:43;9.10;76.49
68842;SHT35;55849;48.482;2.332;2024-02-28T21:20:45;9.07;75.80
68842;SHT35;55849;48.482;2.332;2024-02-28T21:23:48;9.04;75.43
68842;SHT35;55849;48.482;2.332;2024-02-28T21:26:49;9.03;75.86
68842;SHT35;55849;48.482;2.332;2024-02-28T21:29:51;9.01;75.46
68842;SHT35;55849;48.482;2.332;2024-02-28T21:32:53;9.01;75.37
68842;SHT35;55849;48.482;2.332;2024-02-28T21:35:56;9.01;76.09
68842;SHT35;55849;48.482;2.332;2024-02-28T21:38:59;9.01;77.06
68842;SHT35;55849;48.482;2.332;2024-02-28T21:42:01;9.01;76.98
68842;SHT35;55849;48.482;2.332;2024-02-28T21:45:04;9.01;77.67
68842;SHT35;55849;48.482;2.332;2024-02-28T21:48:05;9.01;77.46
68842;SHT35;55849;48.482;2.332;2024-02-28T21:51:07;9.01;77.99
68842;SHT35;55849;48.482;2.332;2024-02-28T21:54:11;9.04;78.65
68842;SHT35;55849;48.482;2.332;2024-02-28T21:57:12;9.07;78.80
68842;SHT35;55849;48.482;2.332;2024-02-28T22:00:14;9.08;78.99
68842;SHT35;55849;48.482;2.332;2024-02-28T22:03:16;9.11;79.72
68842;SHT35;55849;48.482;2.332;2024-02-28T22:06:18;9.14;79.91
68842;SHT35;55849;48.482;2.332;2024-02-28T22:09:21;9.15;79.61
68842;SHT35;55849;48.482;2.332;2024-02-28T22:12:23;9.20;79.85
68842;SHT35;55849;48.482;2.332;2024-02-28T22:15:24;9.21;79.98
68842;SHT35;55849;48.482;2.332;2024-02-28T22:18:26;9.24;80.03
68842;SHT35;55849;48.482;2.332;2024-02-28T22:21:27;9.25;80.01
68842;SHT35;55849;48.482;2.332;2024-02-28T22:24:30;9.30;79.84
68842;SHT35;55849;48.482;2.332;2024-02-28T22:27:32;9.31;80.34
68842;SHT35;55849;48.482;2.332;2024-02-28T22:30:33;9.34;80.34
68842;SHT35;55849;48.482;2.332;2024-02-28T22:33:35;9.32;80.19
68842;SHT35;55849;48.482;2.332;2024-02-28T22:36:37;9.36;80.74
68842;SHT35;55849;48.482;2.332;2024-02-28T22:39:40;9.38;80.52
68842;SHT35;55849;48.482;2.332;2024-02-28T22:42:41;9.41;80.63
68842;SHT35;55849;48.482;2.332;2024-02-28T22:45:43;9.43;80.57
68842;SHT35;55849;48.482;2.332;2024-02-28T22:48:45;9.46;80.45
68842;SHT35;55849;48.482;2.332;2024-02-28T22:51:47;9.48;80.07
68842;SHT35;55849;48.482;2.332;2024-02-28T22:54:50;9.52;80.35
68842;SHT35;55849;48.482;2.332;2024-02-28T22:57:52;9.49;80.13
68842;SHT35;55849;48.482;2.332;2024-02-28T23:00:53;9.51;79.78
68842;SHT35;55849;48.482;2.332;2024-02-28T23:03:55;9.51;79.80
68842;SHT35;55849;48.482;2.332;2024-02-28T23:06:57;9.53;79.58
68842;SHT35;55849;48.482;2.332;2024-02-28T23:09:59;9.56;80.35
68842;SHT35;55849;48.482;2.332;2024-02-28T23:13:01;9.59;79.94
68842;SHT35;55849;48.482;2.332;2024-02-28T23:16:03;9.60;80.34
68842;SHT35;55849;48.482;2.332;2024-02-28T23:19:05;9.62;79.69
68842;SHT35;55849;48.482;2.332;2024-02-28T23:22:07;9.63;80.11
68842;SHT35;55849;48.482;2.332;2024-02-28T23:25:10;9.69;80.10
68842;SHT35;55849;48.482;2.332;2024-02-28T23:28:12;9.72;79.91
68842;SHT35;55849;48.482;2.332;2024-02-28T23:31:13;9.70;79.85
68842;SHT35;55849;48.482;2.332;2024-02-28T23:34:15;9.73;79.82
68842;SHT35;55849;48.482;2.332;2024-02-28T23:37:17;9.75;79.77
68842;SHT35;55849;48.482;2.332;2024-02-28T23:40:19;9.73;79.26
68842;SHT35;55849;48.482;2.332;2024-02-28T23:43:21;9.76;79.55
68842;SHT35;55849;48.482;2.332;2024-02-28T23:46:23;9.79;79.90
68842;SHT35;55849;48.482;2.332;2024-02-28T23:49:24;9.80;79.29
68842;SHT35;55849;48.482;2.332;2024-02-28T23:52:26;9.80;79.37
68842;SHT35;55849;48.482;2.332;2024-02-28T23:55:29;9.80;79.36
68842;SHT35;55849;48.482;2.332;2024-02-28T23:58:31;9.83;79.26
